Time;durP1;ratioP1;P1;durP2;ratioP2;P2;SDS_P1;SDS_P2;PMS_P1;PMS_P2;Temp;Humidity;BMP_temperature;BMP_pressure;BME280_temperature;BME280_humidity;BME280_pressure;Samples;Min_cycle;Max_cycle;Signal;HPM_P1;HPM_P2
2022/11/30 00:01:49;;;;;;;34.20;13.60;;;;;;;2.96;100.00;102123.56;103720;1293;60720;-74
2022/11/30 00:04:18;;;;;;;34.30;14.70;;;;;;;2.91;100.00;102122.79;103761;1288;62688;-77
2022/11/30 00:06:46;;;;;;;29.90;14.10;;;;;;;2.76;100.00;102100.02;103558;1297;73741;-75
2022/11/30 00:09:15;;;;;;;33.10;14.20;;;;;;;2.76;100.00;102123.42;103635;1293;59747;-76
2022/11/30 00:11:44;;;;;;;34.00;14.40;;;;;;;2.68;100.00;102129.23;103578;1293;64300;-75
2022/11/30 00:14:13;;;;;;;34.70;13.70;;;;;;;2.71;100.00;102133.48;103553;1289;59036;-75
2022/11/30 00:16:42;;;;;;;35.60;15.10;;;;;;;2.72;100.00;102131.06;103538;1290;59928;-75
2022/11/30 00:19:11;;;;;;;36.70;15.20;;;;;;;2.79;100.00;102129.55;103611;1290;71270;-76
2022/11/30 00:21:40;;;;;;;38.00;16.00;;;;;;;2.76;100.00;102129.60;103606;1292;71740;-74
2022/11/30 00:24:08;;;;;;;36.70;15.90;;;;;;;2.84;100.00;102130.67;103623;1290;70028;-76
2022/11/30 00:26:37;;;;;;;38.30;16.50;;;;;;;2.82;100.00;102129.16;103679;1286;73750;-75
2022/11/30 00:29:06;;;;;;;36.30;14.60;;;;;;;2.72;100.00;102131.40;103600;1293;59211;-74
2022/11/30 00:31:35;;;;;;;37.90;17.20;;;;;;;2.75;100.00;102129.45;103737;1293;59218;-74
2022/11/30 00:34:04;;;;;;;35.40;15.30;;;;;;;2.83;100.00;102132.93;103627;1297;63456;-75
2022/11/30 00:36:33;;;;;;;41.10;17.00;;;;;;;2.85;100.00;102139.09;103728;1290;61096;-74
2022/11/30 00:39:02;;;;;;;45.90;16.90;;;;;;;3.01;100.00;102144.48;103743;1290;69768;-76
2022/11/30 00:41:31;;;;;;;41.50;16.30;;;;;;;2.99;100.00;102142.45;103658;1296;63677;-73
2022/11/30 00:44:00;;;;;;;38.30;15.20;;;;;;;3.09;100.00;102139.86;103511;1290;59173;-73
2022/11/30 00:46:29;;;;;;;38.80;16.10;;;;;;;3.02;100.00;102135.17;103737;1290;59118;-71
2022/11/30 00:48:58;;;;;;;38.60;15.20;;;;;;;2.96;100.00;102134.94;103759;1288;63242;-75
2022/11/30 00:51:27;;;;;;;35.10;16.00;;;;;;;2.89;100.00;102131.27;103780;1285;72676;-75
2022/11/30 00:53:56;;;;;;;45.40;16.40;;;;;;;2.90;100.00;102131.43;103901;1289;71409;-80
2022/11/30 00:56:24;;;;;;;35.00;15.00;;;;;;;2.85;100.00;102133.41;103873;1293;72856;-79
2022/11/30 00:58:53;;;;;;;26.50;13.60;;;;;;;2.83;100.00;102134.65;103729;1290;60257;-78
2022/11/30 01:01:22;;;;;;;31.70;14.40;;;;;;;2.72;100.00;102135.19;103867;1297;57569;-79
2022/11/30 01:03:51;;;;;;;30.70;14.30;;;;;;;2.71;100.00;102134.17;103662;1289;71060;-74
2022/11/30 01:06:20;;;;;;;29.90;13.90;;;;;;;2.63;100.00;102139.30;103703;1290;70427;-73
2022/11/30 01:08:49;;;;;;;30.00;13.90;;;;;;;2.68;100.00;102135.25;103701;1293;70008;-73
2022/11/30 01:11:24;;;;;;;34.50;14.10;;;;;;;2.63;100.00;102130.86;103760;1293;73648;-76
2022/11/30 01:13:54;;;;;;;30.90;13.50;;;;;;;2.59;100.00;102128.36;103767;1298;58865;-75
2022/11/30 01:16:28;;;;;;;34.40;13.80;;;;;;;2.66;100.00;102130.98;103743;1296;60298;-74
2022/11/30 01:18:57;;;;;;;38.90;16.30;;;;;;;2.73;100.00;102127.27;103550;1285;72298;-74
2022/11/30 01:21:28;;;;;;;33.50;15.10;;;;;;;2.80;100.00;102129.02;103742;1284;61197;-74
2022/11/30 01:23:57;;;;;;;33.30;14.20;;;;;;;2.76;100.00;102125.98;103833;1293;59161;-74
2022/11/30 01:26:26;;;;;;;30.80;14.70;;;;;;;2.87;100.00;102128.55;103962;1293;72578;-82
2022/11/30 01:28:55;;;;;;;32.10;16.00;;;;;;;2.86;100.00;102126.16;104028;1298;57420;-82
2022/11/30 01:31:24;;;;;;;30.90;14.00;;;;;;;2.85;100.00;102129.11;103814;1298;58958;-81
2022/11/30 01:33:54;;;;;;;30.30;14.20;;;;;;;2.86;100.00;102130.48;103759;1298;71096;-81
2022/11/30 01:36:25;;;;;;;33.20;15.40;;;;;;;2.92;100.00;102132.07;103727;1298;60903;-78
2022/11/30 01:38:57;;;;;;;32.50;14.60;;;;;;;2.96;100.00;102129.10;103706;1294;60009;-77
2022/11/30 01:41:29;;;;;;;30.60;14.30;;;;;;;2.96;100.00;102125.98;103733;1292;73878;-77
2022/11/30 01:44:05;;;;;;;;;;;;;;;2.86;100.00;102119.80;103680;1290;61175;-78
2022/11/30 01:46:43;;;;;;;30.10;14.30;;;;;;;2.92;100.00;102121.77;103705;1288;60550;-74
2022/11/30 01:49:20;;;;;;;35.30;15.00;;;;;;;2.83;100.00;102124.67;103491;1296;62946;-73
2022/11/30 01:52:10;;;;;;;30.80;15.00;;;;;;;2.84;100.00;102128.61;103561;1290;72434;-75
2022/11/30 01:54:55;;;;;;;31.10;15.30;;;;;;;2.83;100.00;102128.46;103711;1284;59945;-74
2022/11/30 01:57:51;;;;;;;28.70;15.00;;;;;;;2.70;100.00;102126.61;103750;1288;73059;-77
2022/11/30 02:00:20;;;;;;;27.50;13.70;;;;;;;2.60;100.00;102127.83;103706;1290;63141;-75
2022/11/30 02:03:07;;;;;;;26.70;14.00;;;;;;;2.60;100.00;102123.52;103639;1294;59155;-75
2022/11/30 02:05:40;;;;;;;32.70;15.50;;;;;;;2.61;100.00;102127.10;104265;1291;73599;-73
2022/11/30 02:08:10;;;;;;;29.80;13.80;;;;;;;2.70;100.00;102126.95;104022;1291;62126;-77
2022/11/30 02:10:43;;;;;;;31.90;13.90;;;;;;;2.64;100.00;102127.73;103852;1293;60657;-79
2022/11/30 02:13:24;;;;;;;29.30;13.10;;;;;;;2.57;100.00;102128.20;104022;1290;74688;-79
2022/11/30 02:16:45;;;;;;;31.20;14.30;;;;;;;2.54;100.00;102126.55;103956;1290;59061;-79
2022/11/30 02:20:18;;;;;;;27.50;13.40;;;;;;;2.63;100.00;102128.79;103816;1298;60513;-77
2022/11/30 02:23:27;;;;;;;26.40;13.70;;;;;;;2.55;100.00;102132.36;103394;1290;73192;-78
2022/11/30 02:26:35;;;;;;;25.60;13.80;;;;;;;2.56;100.00;102133.73;103573;1289;71913;-74
2022/11/30 02:29:10;;;;;;;28.60;14.20;;;;;;;2.50;100.00;102130.39;103521;1289;59824;-80
2022/11/30 02:32:01;;;;;;;28.70;13.90;;;;;;;2.48;100.00;102123.89;103551;1290;73893;-74
2022/11/30 02:34:33;;;;;;;29.00;14.40;;;;;;;2.53;100.00;102124.49;103587;1289;62625;-78
2022/11/30 02:37:05;;;;;;;26.20;13.60;;;;;;;2.52;100.00;102123.31;103515;1293;59179;-78
2022/11/30 02:39:34;;;;;;;23.80;13.00;;;;;;;2.46;100.00;102125.48;103443;1293;63416;-75
2022/11/30 02:42:11;;;;;;;24.20;12.60;;;;;;;2.41;100.00;102120.73;102395;1291;1447645;-74
2022/11/30 02:44:47;;;;;;;25.50;13.50;;;;;;;2.33;100.00;102124.27;103512;1289;60002;-73
2022/11/30 02:47:40;;;;;;;25.60;12.90;;;;;;;2.31;100.00;102127.92;103539;1296;73104;-75
2022/11/30 02:50:32;;;;;;;26.10;13.60;;;;;;;2.45;100.00;102128.92;103435;1296;59239;-77
2022/11/30 02:53:01;;;;;;;21.20;11.30;;;;;;;2.56;100.00;102127.89;103552;1289;58737;-74
2022/11/30 02:55:31;;;;;;;23.10;11.60;;;;;;;2.42;99.98;102124.50;103578;1286;63053;-76
2022/11/30 02:58:00;;;;;;;19.60;10.90;;;;;;;2.38;100.00;102122.16;103475;1290;71477;-76
2022/11/30 03:00:28;;;;;;;19.90;10.90;;;;;;;2.33;100.00;102117.94;103566;1285;70517;-75
2022/11/30 03:02:57;;;;;;;22.00;11.60;;;;;;;2.35;100.00;102113.09;103682;1296;74730;-76
2022/11/30 03:05:26;;;;;;;21.00;11.10;;;;;;;2.32;100.00;102115.87;103677;1290;62762;-74
2022/11/30 03:07:55;;;;;;;19.50;11.40;;;;;;;2.39;100.00;102123.16;103659;1290;59061;-76
2022/11/30 03:10:24;;;;;;;21.50;10.80;;;;;;;2.40;100.00;102124.52;103514;1301;64530;-76
2022/11/30 03:12:58;;;;;;;22.20;11.40;;;;;;;2.34;100.00;102127.71;103443;1293;62265;-73
2022/11/30 03:15:27;;;;;;;19.60;11.30;;;;;;;2.36;100.00;102123.58;103522;1294;71946;-74
2022/11/30 03:17:59;;;;;;;23.90;11.40;;;;;;;2.34;100.00;102127.71;103534;1289;74606;-74
2022/11/30 03:20:29;;;;;;;21.80;11.00;;;;;;;2.35;100.00;102126.50;103476;1296;60240;-75
2022/11/30 03:23:01;;;;;;;22.80;11.20;;;;;;;2.39;100.00;102127.30;103524;1299;58424;-75
2022/11/30 03:25:29;;;;;;;21.90;11.10;;;;;;;2.42;100.00;102126.38;103415;1301;73164;-74
2022/11/30 03:28:01;;;;;;;21.70;11.00;;;;;;;2.32;100.00;102126.02;103523;1293;61563;-74
2022/11/30 03:30:30;;;;;;;18.40;9.60;;;;;;;2.30;100.00;102124.17;103523;1299;59959;-74
2022/11/30 03:32:59;;;;;;;19.90;11.40;;;;;;;2.32;100.00;102125.52;103510;1289;64417;-73
2022/11/30 03:35:28;;;;;;;16.80;9.10;;;;;;;2.32;100.00;102124.65;103555;1289;59172;-73
2022/11/30 03:37:57;;;;;;;18.70;9.90;;;;;;;2.26;100.00;102130.59;103433;1293;59345;-74
2022/11/30 03:40:26;;;;;;;21.20;11.20;;;;;;;2.28;100.00;102135.71;103545;1290;62550;-75
2022/11/30 03:42:55;;;;;;;17.60;10.10;;;;;;;2.25;100.00;102139.37;103531;1290;70518;-74
2022/11/30 03:45:23;;;;;;;18.60;10.80;;;;;;;2.25;100.00;102141.27;103515;1296;69745;-74
2022/11/30 03:47:52;;;;;;;19.10;11.10;;;;;;;2.25;100.00;102135.25;103540;1292;73843;-75
2022/11/30 03:50:21;;;;;;;20.80;10.70;;;;;;;2.20;100.00;102141.51;103505;1289;59161;-75
2022/11/30 03:52:50;;;;;;;17.20;9.40;;;;;;;2.22;100.00;102143.04;103408;1296;61324;-75
2022/11/30 03:55:19;;;;;;;19.30;11.50;;;;;;;2.24;100.00;102145.23;103484;1301;63167;-75
2022/11/30 03:57:48;;;;;;;19.00;12.20;;;;;;;2.23;100.00;102142.52;103386;1292;69721;-77
2022/11/30 04:00:18;;;;;;;20.90;11.80;;;;;;;2.32;100.00;102142.70;103459;1296;59617;-75
2022/11/30 04:02:47;;;;;;;22.00;11.80;;;;;;;2.35;100.00;102145.41;103495;1290;63302;-78
2022/11/30 04:05:16;;;;;;;21.40;13.30;;;;;;;2.33;100.00;102143.73;103526;1286;58841;-78
2022/11/30 04:07:45;;;;;;;19.40;10.20;;;;;;;2.29;100.00;102144.46;103511;1294;59142;-77
2022/11/30 04:10:14;;;;;;;19.70;9.40;;;;;;;2.30;100.00;102144.27;103501;1297;62582;-75
2022/11/30 04:12:43;;;;;;;17.70;9.80;;;;;;;2.24;99.98;102144.20;103528;1290;62397;-76
2022/11/30 04:15:12;;;;;;;18.50;10.00;;;;;;;2.19;99.69;102142.55;103561;1291;70069;-77
2022/11/30 04:17:41;;;;;;;18.50;9.80;;;;;;;2.17;100.00;102145.86;103389;1293;73342;-74
2022/11/30 04:20:10;;;;;;;16.90;9.90;;;;;;;2.16;100.00;102148.77;103568;1301;61347;-76
2022/11/30 04:22:39;;;;;;;19.30;10.90;;;;;;;2.20;100.00;102149.77;103533;1296;59269;-76
2022/11/30 04:25:09;;;;;;;14.80;9.00;;;;;;;2.19;100.00;102156.31;103468;1301;62482;-74
2022/11/30 04:27:37;;;;;;;19.20;10.00;;;;;;;2.12;99.96;102156.58;103485;1289;72349;-74
2022/11/30 04:30:08;;;;;;;18.90;9.40;;;;;;;2.13;100.00;102158.12;103551;1289;70162;-73
2022/11/30 04:32:37;;;;;;;18.30;10.50;;;;;;;2.11;99.93;102159.85;103497;1296;65003;-75
2022/11/30 04:35:07;;;;;;;20.00;11.80;;;;;;;2.16;100.00;102161.86;103476;1290;61200;-75
2022/11/30 04:37:36;;;;;;;18.20;10.40;;;;;;;2.19;100.00;102163.54;103580;1285;61164;-78
2022/11/30 04:40:06;;;;;;;22.60;13.20;;;;;;;2.19;99.95;102165.60;103667;1286;74088;-77
2022/11/30 04:42:35;;;;;;;17.00;9.80;;;;;;;2.20;99.94;102167.12;103421;1294;61618;-76
2022/11/30 04:45:05;;;;;;;17.30;9.50;;;;;;;2.13;99.52;102169.29;103640;1301;59572;-75
2022/11/30 04:47:34;;;;;;;17.80;9.60;;;;;;;2.09;99.96;102173.30;103391;1293;63182;-77
2022/11/30 04:50:05;;;;;;;19.10;10.20;;;;;;;2.12;100.00;102174.63;103680;1295;58325;-76
2022/11/30 04:52:35;;;;;;;157.60;66.90;;;;;;;2.26;100.00;102177.00;103684;1298;57578;-76
2022/11/30 04:55:04;;;;;;;30.20;17.10;;;;;;;2.24;99.52;102173.79;103590;1289;72818;-75
2022/11/30 04:57:33;;;;;;;17.10;9.30;;;;;;;2.25;99.61;102173.94;103624;1289;60882;-76
2022/11/30 05:00:07;;;;;;;16.90;8.80;;;;;;;2.36;100.00;102181.48;103698;1288;59864;-77
2022/11/30 05:02:36;;;;;;;24.80;15.10;;;;;;;2.40;100.00;102185.74;103669;1291;72267;-77
2022/11/30 05:05:06;;;;;;;15.70;8.50;;;;;;;2.33;99.03;102185.52;103632;1298;62748;-76
2022/11/30 05:07:34;;;;;;;18.00;9.80;;;;;;;2.26;98.12;102184.73;103607;1298;57641;-73
2022/11/30 05:10:08;;;;;;;14.40;8.80;;;;;;;2.23;98.94;102181.69;103660;1286;62277;-73
2022/11/30 05:12:37;;;;;;;16.40;8.60;;;;;;;2.16;98.80;102180.23;103627;1298;72363;-75
2022/11/30 05:15:07;;;;;;;23.70;13.80;;;;;;;2.05;97.59;102183.84;103650;1285;69895;-79
2022/11/30 05:17:36;;;;;;;12.70;7.80;;;;;;;2.08;99.47;102176.59;103291;1288;64159;-77
2022/11/30 05:20:06;;;;;;;14.00;8.10;;;;;;;2.02;97.71;102174.95;103639;1285;59108;-79
2022/11/30 05:22:35;;;;;;;15.30;8.20;;;;;;;1.96;99.36;102171.06;103660;1286;59149;-77
2022/11/30 05:25:05;;;;;;;16.60;9.20;;;;;;;1.99;99.55;102163.30;103696;1285;72015;-78
2022/11/30 05:27:34;;;;;;;16.10;9.10;;;;;;;2.00;99.06;102161.91;103731;1289;72233;-78
2022/11/30 05:30:07;;;;;;;15.60;9.70;;;;;;;1.97;98.78;102155.59;103654;1285;68341;-79
2022/11/30 05:32:36;;;;;;;17.70;10.00;;;;;;;1.93;98.77;102162.52;103623;1284;74389;-79
2022/11/30 05:35:05;;;;;;;12.70;8.10;;;;;;;1.83;98.06;102166.26;103577;1296;61464;-78
2022/11/30 05:37:34;;;;;;;14.10;8.60;;;;;;;1.79;98.41;102167.15;103789;1293;59617;-77
2022/11/30 05:40:04;;;;;;;16.90;9.50;;;;;;;1.73;99.78;102167.58;103673;1290;74637;-77
2022/11/30 05:42:33;;;;;;;18.00;9.10;;;;;;;1.73;99.77;102170.67;103673;1285;71308;-78
2022/11/30 05:45:02;;;;;;;15.30;9.00;;;;;;;1.80;100.00;102174.02;103651;1290;70044;-78
2022/11/30 05:47:31;;;;;;;16.10;9.60;;;;;;;1.77;100.00;102180.08;103567;1296;63281;-79
2022/11/30 05:50:00;;;;;;;16.60;9.70;;;;;;;1.81;99.91;102186.71;103705;1289;62271;-78
2022/11/30 05:52:28;;;;;;;16.40;9.30;;;;;;;1.83;99.83;102194.60;103744;1292;61264;-79
2022/11/30 05:54:58;;;;;;;17.80;11.30;;;;;;;1.88;100.00;102195.22;103821;1286;62706;-79
2022/11/30 05:57:27;;;;;;;52.00;27.40;;;;;;;1.86;99.78;102199.38;103687;1290;62244;-79
2022/11/30 05:59:55;;;;;;;18.40;10.90;;;;;;;1.84;99.79;102202.66;103735;1290;70408;-78
2022/11/30 06:02:24;;;;;;;38.70;20.30;;;;;;;1.85;99.64;102203.49;103635;1293;63243;-78
2022/11/30 06:04:56;;;;;;;29.00;16.50;;;;;;;1.89;99.96;102204.83;103783;1290;62002;-78
2022/11/30 06:07:24;;;;;;;23.30;12.80;;;;;;;1.86;99.76;102202.80;103718;1292;60553;-79
2022/11/30 06:09:53;;;;;;;17.50;10.60;;;;;;;2.01;100.00;102199.86;103873;1290;62620;-76
2022/11/30 06:12:22;;;;;;;20.00;11.60;;;;;;;2.08;100.00;102200.97;103687;1289;60977;-78
2022/11/30 06:14:51;;;;;;;19.70;10.30;;;;;;;2.05;98.84;102197.74;103730;1293;69766;-79
2022/11/30 06:17:19;;;;;;;19.10;11.10;;;;;;;2.01;98.90;102199.18;103675;1293;74413;-81
2022/11/30 06:19:49;;;;;;;18.30;9.50;;;;;;;2.01;99.36;102201.23;103839;1296;58870;-79
2022/11/30 06:22:18;;;;;;;18.00;10.50;;;;;;;2.02;99.05;102203.62;103687;1290;59082;-77
2022/11/30 06:24:47;;;;;;;17.10;10.30;;;;;;;1.99;97.92;102198.17;103595;1289;73569;-77
2022/11/30 06:27:16;;;;;;;18.60;9.40;;;;;;;1.93;99.06;102198.08;103652;1289;61263;-76
2022/11/30 06:29:45;;;;;;;20.30;10.60;;;;;;;1.96;98.96;102199.94;103669;1298;60469;-75
2022/11/30 06:32:14;;;;;;;18.00;10.10;;;;;;;2.00;99.80;102202.30;103515;1290;62644;-74
2022/11/30 06:34:43;;;;;;;19.70;11.30;;;;;;;2.02;99.87;102205.70;103396;1293;60045;-77
2022/11/30 06:37:12;;;;;;;18.90;10.10;;;;;;;1.92;98.91;102206.86;103647;1286;60946;-77
2022/11/30 06:39:41;;;;;;;22.40;12.50;;;;;;;1.92;97.97;102209.27;103719;1293;63749;-75
2022/11/30 06:42:31;;;;;;;21.80;12.30;;;;;;;2.07;99.58;102213.05;103825;1286;61219;-79
2022/11/30 06:45:01;;;;;;;18.50;9.60;;;;;;;2.14;100.00;102213.96;103970;1290;70571;-78
2022/11/30 06:47:30;;;;;;;31.70;16.40;;;;;;;2.22;100.00;102216.60;103788;1298;74600;-78
2022/11/30 06:49:58;;;;;;;15.80;9.50;;;;;;;2.21;99.18;102220.39;103750;1290;62030;-78
2022/11/30 06:52:30;;;;;;;15.00;8.70;;;;;;;2.21;99.19;102221.08;103690;1283;59176;-73
2022/11/30 06:54:59;;;;;;;17.50;10.40;;;;;;;2.24;98.46;102226.20;103615;1289;63002;-79
2022/11/30 06:57:29;;;;;;;16.50;10.30;;;;;;;2.18;97.94;102226.30;103695;1290;71504;-82
2022/11/30 06:59:57;;;;;;;15.80;9.40;;;;;;;2.23;98.91;102233.95;103484;1289;71562;-79
2022/11/30 07:02:26;;;;;;;20.50;12.00;;;;;;;2.24;97.55;102238.92;103603;1292;63227;-81
2022/11/30 07:04:55;;;;;;;30.60;16.00;;;;;;;2.27;98.10;102237.33;103743;1286;61940;-78
2022/11/30 07:07:24;;;;;;;15.00;9.20;;;;;;;2.26;98.14;102241.64;103818;1289;59051;-82
2022/11/30 07:10:25;;;;;;;17.60;9.90;;;;;;;2.31;99.20;102244.16;103644;1286;62072;-78
2022/11/30 07:12:54;;;;;;;18.90;10.50;;;;;;;2.37;99.21;102248.55;103789;1284;69771;-78
2022/11/30 07:15:23;;;;;;;18.40;10.20;;;;;;;2.40;97.05;102249.71;103590;1286;60009;-79
2022/11/30 07:17:52;;;;;;;16.70;9.80;;;;;;;2.43;96.27;102253.29;103783;1292;72631;-78
2022/11/30 07:20:20;;;;;;;27.20;16.10;;;;;;;2.50;97.83;102251.13;103882;1290;61394;-76
2022/11/30 07:22:49;;;;;;;18.40;10.40;;;;;;;2.58;99.36;102249.98;103912;1291;59143;-77
2022/11/30 07:28:07;;;;;;;21.20;10.50;;;;;;;2.64;96.12;102245.41;104716;1292;71546;-74
2022/11/30 07:30:36;;;;;;;22.00;12.40;;;;;;;2.68;98.20;102247.41;104923;1290;69722;-74
2022/11/30 07:33:05;;;;;;;19.80;11.70;;;;;;;2.79;99.24;102248.27;104314;1296;62477;-76
2022/11/30 07:35:34;;;;;;;24.20;13.10;;;;;;;2.87;97.03;102248.14;103558;1293;59146;-75
2022/11/30 07:38:02;;;;;;;18.00;10.90;;;;;;;2.85;95.78;102243.20;103689;1290;60496;-75
2022/11/30 07:40:37;;;;;;;17.50;10.30;;;;;;;2.85;95.73;102239.75;103686;1289;62967;-76
2022/11/30 07:43:06;;;;;;;18.70;10.30;;;;;;;2.89;96.35;102236.23;103586;1293;71504;-80
2022/11/30 07:45:37;;;;;;;22.50;12.30;;;;;;;2.86;95.55;102242.50;103512;1295;59182;-76
2022/11/30 07:48:06;;;;;;;20.50;11.90;;;;;;;2.84;96.73;102247.16;103718;1290;62540;-75
2022/11/30 07:50:35;;;;;;;18.30;10.30;;;;;;;2.82;96.49;102250.64;103661;1296;58921;-76
2022/11/30 07:53:04;;;;;;;18.00;10.20;;;;;;;2.79;93.92;102245.70;103533;1297;57626;-76
2022/11/30 07:55:32;;;;;;;15.90;9.30;;;;;;;2.85;97.32;102242.85;103734;1290;73559;-76
2022/11/30 07:58:01;;;;;;;16.30;9.90;;;;;;;2.89;95.72;102241.07;103721;1290;71393;-77
2022/11/30 08:00:30;;;;;;;15.50;9.80;;;;;;;2.85;93.62;102236.14;103811;1293;60285;-77
2022/11/30 08:02:59;;;;;;;15.10;8.80;;;;;;;2.79;93.29;102233.83;103858;1289;64355;-76
2022/11/30 08:05:28;;;;;;;18.00;9.70;;;;;;;2.74;94.91;102229.08;103780;1290;61358;-75
2022/11/30 08:07:56;;;;;;;17.20;9.00;;;;;;;2.76;96.62;102228.37;103681;1290;61201;-75
2022/11/30 08:10:25;;;;;;;20.00;9.80;;;;;;;2.76;93.25;102230.07;103912;1290;62568;-76
2022/11/30 08:12:54;;;;;;;13.70;9.00;;;;;;;2.80;94.48;102234.32;103808;1288;61884;-77
2022/11/30 08:15:23;;;;;;;17.20;10.20;;;;;;;2.73;93.55;102232.89;103553;1289;68377;-77
2022/11/30 08:18:04;;;;;;;20.00;10.70;;;;;;;2.73;93.64;102235.46;103635;1295;73028;-77
2022/11/30 08:20:33;;;;;;;20.70;11.30;;;;;;;2.76;96.29;102237.83;103697;1298;61201;-78
2022/11/30 08:23:01;;;;;;;22.00;12.10;;;;;;;2.79;95.20;102238.98;103889;1299;59166;-78
2022/11/30 08:25:30;;;;;;;17.10;10.00;;;;;;;2.84;94.23;102235.30;103823;1296;62362;-77
2022/11/30 08:27:59;;;;;;;16.60;9.90;;;;;;;2.80;92.55;102234.34;103736;1290;61128;-77
2022/11/30 08:30:28;;;;;;;18.40;9.60;;;;;;;2.87;94.32;102233.36;103747;1289;60017;-79
2022/11/30 08:33:00;;;;;;;17.50;10.30;;;;;;;2.84;92.70;102232.71;103621;1293;62588;-76
2022/11/30 08:35:29;;;;;;;19.10;11.10;;;;;;;2.83;91.64;102226.02;103643;1287;58787;-77
2022/11/30 08:37:57;;;;;;;15.90;9.50;;;;;;;2.82;91.50;102225.85;103647;1291;60603;-77
2022/11/30 08:40:26;;;;;;;19.60;12.00;;;;;;;2.73;93.26;102223.26;103439;1301;63592;-78
2022/11/30 08:42:57;;;;;;;16.00;10.10;;;;;;;2.70;93.63;102226.90;103513;1296;61101;-78
2022/11/30 08:45:26;;;;;;;15.80;9.50;;;;;;;2.69;92.63;102227.63;103686;1298;59312;-79
2022/11/30 08:47:56;;;;;;;16.90;10.00;;;;;;;2.78;92.30;102227.81;103497;1292;62534;-77
2022/11/30 08:50:24;;;;;;;16.50;10.30;;;;;;;2.70;93.18;102229.84;103604;1301;61966;-77
2022/11/30 08:52:55;;;;;;;13.40;8.90;;;;;;;2.73;94.13;102229.97;103681;1294;59110;-78
2022/11/30 08:55:32;;;;;;;15.20;9.30;;;;;;;2.70;94.71;102231.55;103673;1290;64647;-78
2022/11/30 08:58:01;;;;;;;17.00;9.50;;;;;;;2.75;92.91;102230.45;103725;1289;60820;-76
2022/11/30 09:00:30;;;;;;;21.40;13.40;;;;;;;2.73;93.10;102230.31;103564;1292;59335;-79
2022/11/30 09:02:59;;;;;;;17.10;10.40;;;;;;;2.72;95.60;102232.22;103570;1292;71276;-76
2022/11/30 09:05:28;;;;;;;14.60;9.10;;;;;;;2.68;95.28;102238.11;103720;1297;61384;-77
2022/11/30 09:07:56;;;;;;;18.10;9.50;;;;;;;2.70;93.26;102234.48;103935;1293;60811;-77
2022/11/30 09:10:25;;;;;;;18.20;10.00;;;;;;;2.71;93.09;102227.23;103873;1285;62992;-79
2022/11/30 09:12:54;;;;;;;15.50;9.10;;;;;;;2.80;93.12;102231.91;103553;1296;60930;-77
2022/11/30 09:15:23;;;;;;;17.50;10.40;;;;;;;2.88;93.08;102234.18;103645;1291;69797;-77
2022/11/30 09:17:51;;;;;;;15.10;8.80;;;;;;;2.91;92.42;102232.92;103630;1289;64530;-78
2022/11/30 09:20:20;;;;;;;18.50;10.80;;;;;;;2.78;92.27;102231.60;103633;1296;58839;-79
2022/11/30 09:22:49;;;;;;;15.30;8.70;;;;;;;2.72;93.82;102232.04;103621;1290;60561;-78
2022/11/30 09:25:17;;;;;;;16.70;10.20;;;;;;;2.80;92.46;102232.95;103600;1290;72672;-78
2022/11/30 09:27:46;;;;;;;14.90;9.50;;;;;;;2.65;92.26;102229.56;103526;1299;61539;-79
2022/11/30 09:30:15;;;;;;;16.00;9.50;;;;;;;2.50;93.73;102224.11;103485;1301;69839;-78
2022/11/30 09:32:44;;;;;;;14.10;8.60;;;;;;;2.60;93.45;102217.77;103594;1300;63678;-78
2022/11/30 09:35:13;;;;;;;23.40;11.50;;;;;;;2.62;93.98;102218.61;103611;1287;62667;-79
2022/11/30 09:37:42;;;;;;;20.60;11.10;;;;;;;2.77;96.74;102220.61;103670;1290;61157;-78
2022/11/30 09:40:13;;;;;;;22.50;12.40;;;;;;;2.81;95.36;102218.83;103564;1291;74109;-78
2022/11/30 09:42:48;;;;;;;21.10;11.70;;;;;;;2.84;95.40;102219.29;103710;1290;70372;-79
2022/11/30 09:45:55;;;;;;;18.60;10.20;;;;;;;3.00;97.45;102221.78;103523;1301;71074;-78
2022/11/30 09:49:01;;;;;;;16.90;10.50;;;;;;;2.97;94.48;102221.84;103559;1301;63829;-78
2022/11/30 09:51:47;;;;;;;16.10;10.20;;;;;;;3.01;95.31;102214.71;103474;1289;62208;-78
2022/11/30 09:54:35;;;;;;;15.80;9.20;;;;;;;3.00;94.01;102211.80;103495;1293;59096;-80
2022/11/30 09:57:40;;;;;;;15.40;9.60;;;;;;;2.97;93.53;102212.02;103567;1290;63104;-77
2022/11/30 10:00:20;;;;;;;15.60;9.10;;;;;;;2.97;92.53;102214.09;103286;1297;71333;-78
2022/11/30 10:02:51;;;;;;;15.60;9.10;;;;;;;3.03;94.56;102220.00;103523;1289;60425;-77
2022/11/30 10:05:34;;;;;;;17.70;9.50;;;;;;;3.04;93.95;102221.02;103493;1296;73066;-77
2022/11/30 10:08:34;;;;;;;10.40;6.80;;;;;;;3.18;93.68;102228.37;103232;1296;62633;-75
2022/11/30 10:11:32;;;;;;;12.70;8.20;;;;;;;3.02;90.57;102229.15;103487;1296;61209;-76
2022/11/30 10:14:18;;;;;;;11.90;6.90;;;;;;;3.06;91.76;102228.56;103295;1287;73452;-79
2022/11/30 10:17:00;;;;;;;12.90;7.60;;;;;;;2.88;90.97;102227.65;103444;1296;71517;-77
2022/11/30 10:20:12;;;;;;;12.90;7.40;;;;;;;2.92;92.30;102233.61;103497;1296;59993;-79
2022/11/30 10:23:20;;;;;;;11.80;6.90;;;;;;;2.87;91.62;102238.34;103682;1290;74016;-79
2022/11/30 10:26:07;;;;;;;12.30;6.90;;;;;;;2.89;91.09;102239.17;103141;1303;61876;-77
2022/11/30 10:28:54;;;;;;;12.50;8.10;;;;;;;2.83;91.68;102236.67;103449;1301;57915;-79
2022/11/30 10:31:38;;;;;;;14.00;8.40;;;;;;;2.85;93.03;102236.64;103489;1290;74449;-78
2022/11/30 10:34:31;;;;;;;12.50;8.40;;;;;;;2.86;90.98;102232.85;103432;1290;61355;-78
2022/11/30 10:37:16;;;;;;;15.10;9.10;;;;;;;2.74;92.42;102226.50;103246;1299;70707;-78
2022/11/30 10:40:01;;;;;;;12.80;8.10;;;;;;;2.72;91.57;102223.79;103580;1292;73552;-77
2022/11/30 10:42:29;;;;;;;11.50;7.90;;;;;;;2.69;91.24;102225.56;103526;1289;61226;-78
2022/11/30 10:45:05;;;;;;;20.90;12.10;;;;;;;2.83;95.61;102225.67;103576;1301;59099;-77
2022/11/30 10:47:37;;;;;;;17.30;9.10;;;;;;;2.90;94.70;102221.77;103439;1290;74421;-79
2022/11/30 10:50:07;;;;;;;13.70;8.90;;;;;;;2.86;92.63;102217.38;103397;1289;71876;-77
2022/11/30 10:52:55;;;;;;;11.60;7.50;;;;;;;2.96;91.24;102213.25;103495;1290;69868;-76
2022/11/30 10:55:29;;;;;;;12.40;8.50;;;;;;;2.84;90.07;102203.96;103503;1301;74366;-78
2022/11/30 10:58:22;;;;;;;11.80;8.00;;;;;;;2.94;92.38;102207.60;103159;1295;61955;-78
2022/11/30 11:00:57;;;;;;;12.60;7.00;;;;;;;2.86;89.84;102208.77;103340;1290;59706;-77
2022/11/30 11:03:26;;;;;;;15.50;8.70;;;;;;;2.86;91.88;102207.21;103556;1296;72547;-76
2022/11/30 11:06:05;;;;;;;11.90;7.30;;;;;;;2.94;93.31;102205.37;103500;1290;72428;-78
2022/11/30 11:08:34;;;;;;;13.60;9.10;;;;;;;2.84;92.00;102207.76;103571;1292;71495;-78
2022/11/30 11:11:03;;;;;;;13.70;8.40;;;;;;;2.68;93.28;102208.02;103469;1290;73847;-77
2022/11/30 11:13:42;;;;;;;14.70;8.30;;;;;;;2.68;95.58;102203.55;103587;1290;61045;-78
2022/11/30 11:16:12;;;;;;;15.00;8.90;;;;;;;2.69;97.12;102197.85;103366;1299;59691;-78
2022/11/30 11:18:54;;;;;;;15.80;8.70;;;;;;;2.66;96.77;102194.80;103422;1296;64556;-78
2022/11/30 11:21:23;;;;;;;15.80;9.60;;;;;;;2.55;97.43;102194.98;103450;1293;61762;-78
2022/11/30 11:23:56;;;;;;;14.20;7.90;;;;;;;2.63;97.38;102198.30;103369;1293;61873;-78
2022/11/30 11:26:28;;;;;;;13.40;8.90;;;;;;;2.69;96.49;102191.67;103655;1293;63408;-77
2022/11/30 11:29:01;;;;;;;15.30;8.50;;;;;;;2.55;95.41;102188.60;103231;1296;58028;-78
2022/11/30 11:31:45;;;;;;;15.20;10.40;;;;;;;2.57;96.08;102185.48;103585;1297;60556;-77
2022/11/30 11:34:30;;;;;;;17.70;9.90;;;;;;;2.47;97.41;102185.98;103540;1289;74314;-76
2022/11/30 11:37:32;;;;;;;19.10;10.60;;;;;;;2.62;96.72;102193.33;103474;1293;61675;-77
2022/11/30 11:40:08;;;;;;;16.10;10.10;;;;;;;2.66;97.48;102201.86;103591;1294;59547;-78